Du har inga inställningar för hoppväder.nu

Hoppväder.nu

Senast uppdaterat 12:18

UTC-tid

2022-10-01 kl. 10:18


Sol och måne

Solen går upp 7:15 och går ner 19:30 (beräknade cirkatider)
Nästa fullmåne blir om 8 dagar (2022-10-09)

METAR

ESMK (Everöd)
(28 minuter sedan)
ESMK 010950Z AUTO 14010KT 9999 SCT130/// 15/10 Q1002=



ESMS (Malmö)
(28 minuter sedan)
ESMS 010950Z 17014KT CAVOK 13/08 Q1002=



ESMX (Växjö)
(28 minuter sedan)
ESMX 010950Z AUTO 16008KT 9999 FEW023/// SCT180/// 13/10 Q1003=



ESDF (Ronneby)
(28 minuter sedan)
ESDF 010950Z 18014KT 9999 FEW028 14/10 Q1004=



EKRN (Rønne, Bornholm)
(28 minuter sedan)
EKRN 010950Z AUTO 16016KT 9999 NCD 14/10 Q1003=



TAF

ESMK (Everöd)
ESMK



ESMS (Malmö)
(133 minuter sedan)
ESMS 010805Z 0109/0209 16012KT 9999 BKN040 BECMG 0113/0115 3000 -RADZ BKN005 TEMPO 0115/0118 8000 RA BKN015 BECMG 0118/0121 28012KT 9999 NSW BKN020 TEMPO 0121/0209 BKN010 SCT020CB=



ESMX (Växjö)
(288 minuter sedan)
ESMX 010530Z 0106/0110 15007KT CAVOK=



ESDF (Ronneby)
(108 minuter sedan)
ESDF 010830Z 0109/0115 17013KT 9999 SCT025 BECMG 0114/0115 4000 -RA BKN014=



EKRN (Rønne, Bornholm)
(131 minuter sedan)
EKRN 010807Z 0109/0118 18012KT 9999 SCT025 TEMPO 0109/0113 17015G28KT TEMPO 0113/0115 17015G28KT 4000 RA BKN010 BECMG 0115/0117 21015G28KT TEMPO 0115/0118 4000 RA BKN008=





Kodnycklar till TAF och METAR






LHP

(Everöd är område se11e i Hela Område 1)

Översikt

ÖVERSIKT FÖR OMRÅDE se1 UTFÄRDAD 010730

GÄLLANDE DEN 1 OKTOBER 2022 MELLAN 08 OCH 16 UTC


Väderöversikt
Se väderöversikt för område se2 + se3
Sikt under 5 kilometer eller molnbas under 1000 fot
08-12UTC: I hela området

Måttlig eller svår isbildning
08-12UTC: I hela området

Måttlig eller svår turbulens
Väntas inte förekomma under perioden


Hela Område 1

PROGNOS FÖR OMRÅDE se11 UTFÄRDAD 010730
GÄLLANDE DEN 1 OKTOBER 2022 MELLAN 08 OCH 16 UTC


Måttlig eller svår turbulens
08-16UTC: I hela området: Väntas inte förekomma under perioden

Måttlig eller svår isbildning
08-16UTC: I hela området: måttlig isbildning FL055 - > FL125

Sikt/Väder/Moln
08-10UTC: Område se11e,se11d,se11c,se11b,se11i,se11h,se11g,se11f: Sikt >8km. Molnbas >4000ft, lokalt 2000ft - 4000ft.

08-12UTC: Område se11a: Sikt 3km - >8km i dis, regn. Molnbas 500ft - >4000ft.

10-12UTC: Område se11e,se11d,se11b,se11i,se11h,se11f: Sikt 3km - >8km i dis, regn. Molnbas 500ft - >4000ft.

10-16UTC: Område se11c,se11g: Sikt >8km i regn, lokalt 3km - 5km i dis. Molnbas 1500ft - 2000ft, lokalt 500ft - 1000ft.

12-16UTC: Område se11a,se11e,se11d,se11b,se11i,se11h,se11f: Sikt >8km i regn, lokalt 3km - 5km i dis. Molnbas 1500ft - 2000ft, lokalt 500ft - 1000ft.


Molnöversida
08-16UTC: I hela området: Molnöversida > FL125.

CB/TCU Moln
08-16UTC: I hela området: Väntas inte förekomma under perioden

Nollgradersisoterm
08-16UTC: I hela området: Noll grader FL055 - FL070.

Vind vid marken
08-10UTC: Område se11a: SO-S/6-23 knop, byar upp till 31 knop.
Område se11d: SO/6-20 knop, byar upp till 26 knop.
Område se11h: S/9-22 knop, byar upp till 31 knop.
Område se11g: S/14-23 knop, byar upp till 30 knop.
Område se11e: SO-S/6-15 knop, byar upp till 26 knop.
Område se11f: SO-S/7-19 knop, byar upp till 30 knop.
Område se11c: SO-S/9-22 knop, byar upp till 29 knop.
Område se11b: SO-S/10-22 knop, byar upp till 28 knop.
Område se11i: S/10-22 knop, byar upp till 31 knop.

10-12UTC: Område se11e: SO-S/6-16 knop, byar upp till 25 knop.
Område se11b: SO-S/13-22 knop, byar upp till 29 knop.
Område se11i,se11h: S/10-23 knop, byar upp till 31 knop.
Område se11d: SO-S/6-21 knop, byar upp till 27 knop.
Område se11f: S/7-18 knop, byar upp till 29 knop.
Område se11a: SO-S/6-27 knop, byar upp till 35 knop.
Område se11c: SO-S/8-23 knop, byar upp till 29 knop.
Område se11g: S/11-24 knop, byar upp till 31 knop.

12-14UTC: Område se11a: SO-S/3-22 knop, byar upp till 35 knop.
Område se11f: SO-S/5-22 knop, byar upp till 30 knop.
Område se11g: S/15-26 knop, byar upp till 33 knop.
Område se11b: SO-S/8-19 knop, byar upp till 25 knop.
Område se11e: SO-S/4-14 knop, byar upp till 25 knop.
Område se11i: S/10-26 knop, byar upp till 34 knop.
Område se11c: S/8-22 knop, byar upp till 30 knop.
Område se11d: SO/4-18 knop, byar upp till 24 knop.
Område se11h: S/7-24 knop, byar upp till 32 knop.

14-16UTC: Område se11a: SO/2-18 knop, byar upp till 24 knop.
Område se11i: S-SV/11-27 knop, byar upp till 36 knop.
Område se11g: S-SV/12-25 knop, byar upp till 33 knop.
Område se11d: SO/2-14 knop, byar upp till 23 knop.
Område se11b: S/2-15 knop, byar upp till 22 knop.
Område se11f: S/5-22 knop, byar upp till 31 knop.
Område se11c: SV/4-17 knop, byar upp till 28 knop.
Område se11h: S/6-26 knop, byar upp till 34 knop.
Område se11e: SO-S/3-13 knop, byar upp till 23 knop.


Genomsnittlig vind och temperatur för området

2000ft:
08-10UTC: 190/28kt +8.
10-12UTC: 180/26kt +7.
12-14UTC: 180/27kt +6.
14-16UTC: 200/25kt +6.

FL050:
08-10UTC: 190/29kt +1.
10-12UTC: 180/30kt +1.
12-14UTC: 180/27kt +0.
14-16UTC: 210/22kt +1.

FL100:
08-10UTC: 200/33kt -7.
10-12UTC: 200/29kt -7.
12-14UTC: 220/29kt -6.
14-16UTC: 230/24kt -6.

Lägsta QNH
08-12UTC: I hela området: 998 hPa
12-16UTC: I hela området: 997 hPa

OBS! endast utbredd måttlig eller svår isbildning och turbulens prognostiseras i LLF.
Avsaknad av isbildning och turbulens i prognosen utesluter inte förekomst av lätt isbildning och turbulens.
För indikation på lätt isbildning, var vänlig kontrollera om prognosen för molntopp ligger högre än nollgradersisotermen.
Förekomst av TCU eller CB medför alltid en risk för måttlig eller svår isbildning och turbulens även om det inte framgår explicit av prognosen.








Spotting

Hur fungerar spotthjälpen och Vindkartan?

Markvind är ca 3-8 m/s med byar på 13 m/s.
Vind på 600 m ca 13 m/s.
Vind på 1500 m ca 15 m/s.
Vind på 3000 m ca 15 m/s.
KalleDavid flyger ca 29 m/s över marken på finalen.
Du driver ca 671 m bakåt i frifall. (895 m)
Lämplig spot är 13 sekunder eller 375 m efter gropen.
(21 s eller 605 m)
För små grupper eller ensamhoppare bör man vänta 5-7 sekunder mellan grupperna.
För större grupper bör man vänta 10-13 sekunder mellan grupperna.


Vindkartan

Senast uppdaterad 12:18




All data kommer från LFV.se